createdAt,value
2019-03-22T00:00:36.017Z,11.90
2019-03-22T00:03:07.261Z,11.80
2019-03-22T00:05:38.886Z,11.70
2019-03-22T00:08:10.314Z,11.70
2019-03-22T00:10:41.757Z,11.60
2019-03-22T00:13:13.201Z,11.50
2019-03-22T00:15:44.452Z,11.80
2019-03-22T00:18:16.617Z,11.80
2019-03-22T00:20:48.071Z,12.00
2019-03-22T00:23:19.413Z,11.90
2019-03-22T00:25:50.664Z,11.90
2019-03-22T00:28:22.030Z,11.80
2019-03-22T00:30:53.501Z,11.80
2019-03-22T00:33:24.902Z,11.80
2019-03-22T00:38:31.088Z,11.80
2019-03-22T00:41:02.422Z,11.80
2019-03-22T00:43:34.928Z,11.90
2019-03-22T00:46:06.237Z,11.90
2019-03-22T00:48:37.612Z,11.80
2019-03-22T00:51:09.275Z,11.70
2019-03-22T00:53:40.804Z,11.70
2019-03-22T00:56:11.872Z,11.80
2019-03-22T00:58:43.308Z,11.80
2019-03-22T01:01:14.964Z,11.80
2019-03-22T01:03:46.421Z,11.90
2019-03-22T01:06:17.693Z,11.80
2019-03-22T01:08:49.015Z,11.70
2019-03-22T01:11:20.176Z,11.60
2019-03-22T01:13:51.395Z,11.60
2019-03-22T01:16:22.536Z,11.60
2019-03-22T01:18:54.267Z,11.60
2019-03-22T01:21:26.163Z,11.50
2019-03-22T01:23:59.979Z,11.60
2019-03-22T01:26:31.499Z,11.80
2019-03-22T01:29:02.741Z,11.60
2019-03-22T01:31:34.324Z,11.40
2019-03-22T01:34:06.166Z,11.40
2019-03-22T01:36:37.761Z,11.40
2019-03-22T01:39:09.283Z,11.30
2019-03-22T01:41:41.256Z,11.30
2019-03-22T01:44:12.770Z,11.30
2019-03-22T01:46:44.040Z,11.30
2019-03-22T01:49:15.598Z,11.20
2019-03-22T01:51:47.050Z,11.20
2019-03-22T01:54:18.377Z,11.20
2019-03-22T01:56:51.513Z,11.20
2019-03-22T01:59:22.596Z,11.30
2019-03-22T02:01:54.271Z,11.40
2019-03-22T02:04:25.607Z,11.40
2019-03-22T02:06:56.864Z,11.60
2019-03-22T02:09:28.335Z,11.70
2019-03-22T02:11:59.975Z,11.60
2019-03-22T02:14:31.502Z,11.60
2019-03-22T02:17:02.684Z,11.50
2019-03-22T02:19:34.733Z,11.30
2019-03-22T02:22:06.319Z,11.20
2019-03-22T02:24:37.538Z,11.20
2019-03-22T02:27:08.664Z,11.10
2019-03-22T02:32:29.814Z,11.10
2019-03-22T02:35:01.259Z,11.10
2019-03-22T02:37:32.499Z,11.10
2019-03-22T02:40:04.533Z,11.00
2019-03-22T02:42:35.917Z,11.10
2019-03-22T02:45:07.932Z,11.00
2019-03-22T02:47:39.428Z,11.00
2019-03-22T02:50:18.115Z,11.10
2019-03-22T02:52:44.364Z,11.00
2019-03-22T02:55:15.700Z,11.00
2019-03-22T02:57:46.949Z,11.00
2019-03-22T03:00:36.825Z,11.00
2019-03-22T03:03:08.104Z,11.00
2019-03-22T03:05:39.555Z,10.90
2019-03-22T03:08:10.897Z,10.90
2019-03-22T03:10:42.113Z,10.80
2019-03-22T03:13:13.589Z,10.80
2019-03-22T03:15:44.800Z,10.70
2019-03-22T03:21:11.734Z,10.80
2019-03-22T03:23:43.295Z,10.70
2019-03-22T03:26:14.576Z,10.70
2019-03-22T03:28:46.055Z,10.70
2019-03-22T03:31:17.319Z,10.60
2019-03-22T03:33:48.758Z,10.60
2019-03-22T03:36:20.957Z,10.50
2019-03-22T03:38:52.279Z,10.50
2019-03-22T03:41:23.538Z,10.50
2019-03-22T03:43:54.826Z,10.50
2019-03-22T03:46:26.417Z,10.50
2019-03-22T03:48:57.746Z,10.50
2019-03-22T03:51:29.050Z,10.50
2019-03-22T03:54:00.344Z,10.60
2019-03-22T03:56:31.702Z,10.60
2019-03-22T03:59:03.155Z,10.60
2019-03-22T04:01:34.371Z,10.60
2019-03-22T04:04:05.647Z,10.50
2019-03-22T04:06:36.869Z,10.40
2019-03-22T04:09:09.491Z,10.60
2019-03-22T04:11:40.793Z,10.60
2019-03-22T04:14:12.161Z,10.60
2019-03-22T04:16:43.735Z,10.50
2019-03-22T04:19:33.581Z,10.50
2019-03-22T04:22:04.854Z,10.40
2019-03-22T04:27:25.521Z,10.40
2019-03-22T04:29:56.720Z,10.40
2019-03-22T04:32:27.862Z,10.30
2019-03-22T04:35:00.020Z,10.40
2019-03-22T04:40:27.719Z,10.20
2019-03-22T04:42:59.254Z,10.20
2019-03-22T04:45:32.209Z,10.20
2019-03-22T04:48:11.833Z,10.10
2019-03-22T04:50:44.342Z,9.90
2019-03-22T04:53:18.544Z,9.90
2019-03-22T04:55:54.041Z,9.90
2019-03-22T04:58:26.253Z,9.80
2019-03-22T05:00:59.791Z,9.80
2019-03-22T05:03:32.487Z,9.70
2019-03-22T05:06:05.010Z,9.70
2019-03-22T05:08:39.126Z,9.70
2019-03-22T05:11:12.466Z,9.70
2019-03-22T05:13:46.262Z,9.80
2019-03-22T05:16:20.272Z,9.80
2019-03-22T05:18:54.219Z,9.80
2019-03-22T05:21:28.169Z,9.80
2019-03-22T05:24:03.020Z,9.80
2019-03-22T05:26:37.394Z,9.80
2019-03-22T05:29:11.625Z,9.80
2019-03-22T05:32:06.045Z,9.80
2019-03-22T05:34:37.247Z,9.80
2019-03-22T05:37:08.403Z,9.80
2019-03-22T05:39:39.678Z,9.80
2019-03-22T05:45:00.335Z,9.80
2019-03-22T05:47:31.775Z,9.80
2019-03-22T05:50:03.247Z,9.80
2019-03-22T05:52:34.323Z,9.80
2019-03-22T05:55:06.367Z,9.80
2019-03-22T05:57:37.706Z,9.80
2019-03-22T06:00:09.140Z,9.80
2019-03-22T06:02:40.484Z,9.80
2019-03-22T06:05:11.815Z,9.80
2019-03-22T06:07:43.093Z,9.80
2019-03-22T06:10:14.840Z,9.70
2019-03-22T06:12:51.644Z,9.70
2019-03-22T06:15:22.840Z,9.80
2019-03-22T06:17:54.335Z,9.90
2019-03-22T06:20:25.447Z,9.90
2019-03-22T06:25:52.630Z,9.90
2019-03-22T06:28:23.714Z,9.90
2019-03-22T06:30:55.030Z,9.90
2019-03-22T06:33:26.372Z,9.90
2019-03-22T06:35:57.619Z,9.90
2019-03-22T06:38:28.866Z,9.80
2019-03-22T06:41:00.219Z,9.90
2019-03-22T06:43:31.628Z,9.80
2019-03-22T06:46:02.925Z,9.80
2019-03-22T06:48:34.109Z,9.80
2019-03-22T06:51:06.466Z,9.80
2019-03-22T06:53:37.855Z,9.70
2019-03-22T06:56:09.417Z,9.70
2019-03-22T06:58:40.940Z,9.70
2019-03-22T07:01:12.342Z,9.60
2019-03-22T07:03:43.726Z,9.60
2019-03-22T07:06:14.999Z,9.40
2019-03-22T07:08:46.551Z,9.50
2019-03-22T07:11:18.103Z,9.60
2019-03-22T07:13:49.220Z,9.60
2019-03-22T07:16:20.604Z,9.70
2019-03-22T07:18:51.775Z,9.70
2019-03-22T07:21:22.975Z,9.60
2019-03-22T07:23:54.508Z,9.70
2019-03-22T07:26:25.841Z,9.90
2019-03-22T07:28:57.415Z,9.90
2019-03-22T07:31:28.896Z,9.90
2019-03-22T07:34:00.338Z,9.90
2019-03-22T07:36:31.732Z,10.00
2019-03-22T07:39:04.146Z,10.00
2019-03-22T07:41:35.589Z,10.10
2019-03-22T07:44:06.956Z,10.20
2019-03-22T07:46:38.399Z,10.20
2019-03-22T07:49:09.835Z,10.20
2019-03-22T07:51:41.197Z,10.30
2019-03-22T07:54:14.274Z,10.40
2019-03-22T07:56:45.732Z,10.40
2019-03-22T07:59:17.177Z,10.40
2019-03-22T08:01:48.329Z,10.40
2019-03-22T08:04:19.868Z,10.50
2019-03-22T08:06:51.239Z,10.50
2019-03-22T08:09:23.622Z,10.50
2019-03-22T08:11:54.774Z,10.60
2019-03-22T08:14:26.218Z,10.60
2019-03-22T08:16:57.530Z,10.60
2019-03-22T08:19:29.208Z,10.60
2019-03-22T08:22:00.692Z,10.50
2019-03-22T08:24:32.094Z,10.60
2019-03-22T08:27:03.292Z,10.70
2019-03-22T08:29:34.763Z,10.80
2019-03-22T08:32:06.155Z,10.70
2019-03-22T08:34:37.606Z,10.80
2019-03-22T08:37:09.051Z,10.70
2019-03-22T08:39:40.301Z,10.60
2019-03-22T08:42:11.867Z,10.60
2019-03-22T08:44:43.239Z,10.60
2019-03-22T08:47:14.641Z,10.70
2019-03-22T08:49:45.878Z,10.80
2019-03-22T08:52:25.860Z,10.80
2019-03-22T08:54:57.168Z,11.00
2019-03-22T08:57:28.591Z,11.00
2019-03-22T08:59:59.896Z,11.10
2019-03-22T09:02:31.299Z,11.20
2019-03-22T09:05:02.750Z,11.30
2019-03-22T09:07:34.098Z,11.40
2019-03-22T09:10:06.577Z,11.50
2019-03-22T09:12:37.715Z,11.40
2019-03-22T09:15:09.471Z,11.50
2019-03-22T09:17:41.056Z,11.50
2019-03-22T09:20:12.681Z,11.50
2019-03-22T09:22:44.154Z,11.60
2019-03-22T09:25:15.409Z,11.70
2019-03-22T09:27:46.592Z,11.70
2019-03-22T09:30:18.269Z,11.70
2019-03-22T09:32:49.509Z,11.70
2019-03-22T09:35:20.604Z,11.70
2019-03-22T09:37:51.790Z,11.60
2019-03-22T09:40:23.209Z,11.70
2019-03-22T09:42:55.623Z,11.60
2019-03-22T09:45:26.967Z,11.90
2019-03-22T09:47:58.395Z,12.00
2019-03-22T09:50:29.778Z,11.80
2019-03-22T09:53:01.248Z,11.90
2019-03-22T09:55:32.684Z,11.80
2019-03-22T09:58:04.118Z,12.00
2019-03-22T10:00:36.130Z,12.20
2019-03-22T10:03:07.423Z,12.30
2019-03-22T10:05:38.720Z,12.40
2019-03-22T10:08:10.116Z,12.50
2019-03-22T10:10:41.607Z,12.60
2019-03-22T10:13:12.991Z,12.60
2019-03-22T10:15:44.358Z,12.40
2019-03-22T10:18:15.639Z,12.20
2019-03-22T10:20:46.892Z,12.30
2019-03-22T10:23:18.254Z,12.10
2019-03-22T10:25:49.587Z,12.10
2019-03-22T10:28:22.061Z,12.20
2019-03-22T10:30:53.650Z,12.10
2019-03-22T10:33:24.952Z,12.00
2019-03-22T10:35:56.338Z,11.90
2019-03-22T10:38:31.895Z,11.80
2019-03-22T10:41:00.553Z,11.90
2019-03-22T10:43:32.034Z,11.80
2019-03-22T10:46:03.595Z,11.70
2019-03-22T10:48:35.031Z,11.80
2019-03-22T10:51:06.342Z,11.70
2019-03-22T10:53:37.758Z,11.50
2019-03-22T10:56:09.124Z,11.60
2019-03-22T10:58:41.000Z,11.60
2019-03-22T11:01:12.596Z,11.70
2019-03-22T11:03:44.097Z,11.80
2019-03-22T11:06:25.897Z,12.00
2019-03-22T11:08:51.382Z,12.20
2019-03-22T11:11:22.704Z,12.30
2019-03-22T11:13:53.852Z,12.60
2019-03-22T11:16:25.007Z,12.90
2019-03-22T11:18:56.339Z,12.90
2019-03-22T11:21:27.974Z,12.80
2019-03-22T11:23:59.359Z,13.10
2019-03-22T11:26:31.756Z,13.30
2019-03-22T11:29:03.326Z,13.10
2019-03-22T11:31:39.702Z,12.80
2019-03-22T11:34:08.587Z,12.90
2019-03-22T11:36:39.947Z,12.90
2019-03-22T11:39:15.775Z,13.00
2019-03-22T11:41:45.879Z,12.90
2019-03-22T11:44:17.295Z,13.20
2019-03-22T11:46:49.702Z,13.10
2019-03-22T11:49:21.104Z,12.90
2019-03-22T11:51:52.442Z,12.90
2019-03-22T11:54:24.582Z,13.10
2019-03-22T11:56:55.930Z,13.30
2019-03-22T11:59:27.356Z,13.30
2019-03-22T12:01:58.669Z,13.40
2019-03-22T12:04:30.207Z,13.20
2019-03-22T12:07:02.390Z,13.30
2019-03-22T12:09:33.577Z,13.30
2019-03-22T12:12:05.175Z,13.50
2019-03-22T12:14:36.486Z,13.50
2019-03-22T12:17:08.083Z,13.50
2019-03-22T12:19:39.575Z,13.50
2019-03-22T12:22:10.931Z,13.40
2019-03-22T12:24:42.479Z,13.40
2019-03-22T12:27:15.064Z,13.40
2019-03-22T12:29:46.334Z,13.30
2019-03-22T12:32:17.459Z,13.50
2019-03-22T12:34:48.886Z,13.70
2019-03-22T12:37:20.318Z,13.80
2019-03-22T12:39:51.577Z,13.80
2019-03-22T12:42:22.745Z,13.80
2019-03-22T12:44:55.804Z,13.90
2019-03-22T12:47:27.165Z,13.80
2019-03-22T12:49:58.316Z,13.80
2019-03-22T12:52:31.313Z,14.00
2019-03-22T12:55:02.468Z,13.80
2019-03-22T12:57:33.671Z,13.40
2019-03-22T13:00:06.063Z,13.50
2019-03-22T13:02:42.301Z,13.50
2019-03-22T13:05:10.772Z,13.60
2019-03-22T13:07:42.229Z,13.40
2019-03-22T13:10:15.313Z,13.50
2019-03-22T13:12:46.639Z,13.40
2019-03-22T13:15:17.920Z,13.20
2019-03-22T13:17:49.134Z,13.10
2019-03-22T13:20:20.612Z,13.20
2019-03-22T13:22:51.953Z,13.40
2019-03-22T13:28:05.429Z,13.10
2019-03-22T13:30:37.463Z,13.20
2019-03-22T13:33:08.734Z,13.20
2019-03-22T13:35:41.069Z,13.20
2019-03-22T13:38:12.543Z,13.30
2019-03-22T13:40:43.909Z,13.30
2019-03-22T13:43:15.350Z,13.20
2019-03-22T13:45:46.432Z,13.20
2019-03-22T13:48:17.629Z,13.30
2019-03-22T13:53:38.144Z,13.30
2019-03-22T13:56:12.364Z,13.20
2019-03-22T13:58:43.759Z,13.20
2019-03-22T14:01:15.055Z,13.20
2019-03-22T14:03:46.373Z,13.20
2019-03-22T14:06:17.548Z,13.20
2019-03-22T14:08:49.004Z,13.20
2019-03-22T14:11:20.170Z,13.10
2019-03-22T14:13:51.299Z,13.20
2019-03-22T14:16:22.431Z,13.30
2019-03-22T14:18:53.973Z,13.50
2019-03-22T14:21:25.224Z,13.40
2019-03-22T14:23:56.428Z,13.40
2019-03-22T14:26:28.075Z,13.40
2019-03-22T14:28:59.436Z,13.30
2019-03-22T14:31:30.670Z,13.30
2019-03-22T14:34:02.009Z,13.30
2019-03-22T14:36:33.225Z,13.30
2019-03-22T14:39:06.545Z,13.40
2019-03-22T14:41:37.852Z,13.40
2019-03-22T14:44:09.189Z,13.40
2019-03-22T14:46:40.615Z,13.30
2019-03-22T14:52:02.589Z,13.20
2019-03-22T14:54:33.795Z,13.30
2019-03-22T14:57:05.086Z,13.20
2019-03-22T14:59:36.434Z,13.10
2019-03-22T15:02:07.559Z,13.10
2019-03-22T15:04:39.008Z,13.00
2019-03-22T15:07:19.406Z,13.20
2019-03-22T15:09:46.156Z,13.30
2019-03-22T15:12:16.542Z,13.30
2019-03-22T15:15:06.646Z,13.30
2019-03-22T15:20:48.649Z,13.10
2019-03-22T15:23:38.868Z,13.00
2019-03-22T15:26:33.317Z,12.70
2019-03-22T15:29:22.307Z,12.80
2019-03-22T15:32:11.330Z,12.80
2019-03-22T15:35:00.277Z,12.80
2019-03-22T15:37:55.269Z,12.80
2019-03-22T15:40:26.755Z,12.70
2019-03-22T15:42:58.216Z,12.50
2019-03-22T15:45:30.325Z,12.40
2019-03-22T15:48:01.937Z,12.50
2019-03-22T15:50:33.251Z,12.50
2019-03-22T15:55:53.486Z,12.40
2019-03-22T15:58:24.951Z,12.40
2019-03-22T16:00:56.280Z,12.30
2019-03-22T16:03:27.467Z,12.40
2019-03-22T16:05:58.991Z,12.40
2019-03-22T16:08:30.200Z,12.10
2019-03-22T16:11:01.466Z,12.00
2019-03-22T16:13:32.731Z,11.90
2019-03-22T16:16:04.002Z,11.80
2019-03-22T16:18:36.463Z,11.70
2019-03-22T16:21:07.805Z,11.70
2019-03-22T16:23:39.116Z,11.60
2019-03-22T16:26:10.685Z,11.60
2019-03-22T16:28:41.942Z,11.60
2019-03-22T16:31:13.288Z,11.60
2019-03-22T16:33:50.641Z,11.70
2019-03-22T16:36:17.664Z,11.70
2019-03-22T16:38:48.946Z,11.70
2019-03-22T16:41:20.284Z,11.70
2019-03-22T16:43:51.471Z,11.70
2019-03-22T16:46:23.025Z,11.70
2019-03-22T16:48:54.324Z,11.70
2019-03-22T16:51:25.520Z,11.70
2019-03-22T16:53:57.272Z,11.80
2019-03-22T16:56:28.699Z,11.80
2019-03-22T16:59:00.163Z,11.80
2019-03-22T17:01:32.638Z,11.80
2019-03-22T17:04:04.690Z,11.80
2019-03-22T17:06:36.203Z,11.70
2019-03-22T17:09:08.435Z,11.70
2019-03-22T17:11:39.576Z,11.70
2019-03-22T17:14:10.715Z,11.80
2019-03-22T17:16:41.849Z,11.70
2019-03-22T17:19:13.087Z,11.70
2019-03-22T17:21:44.653Z,11.70
2019-03-22T17:24:15.876Z,11.70
2019-03-22T17:26:47.260Z,11.70
2019-03-22T17:29:18.543Z,11.70
2019-03-22T17:31:49.875Z,11.50
2019-03-22T17:34:21.491Z,11.60
2019-03-22T17:36:53.020Z,11.40
2019-03-22T17:39:24.475Z,11.40
2019-03-22T17:41:56.037Z,11.60
2019-03-22T17:44:27.576Z,11.50
2019-03-22T17:46:59.033Z,11.50
2019-03-22T17:49:30.228Z,11.60
2019-03-22T17:52:01.798Z,11.70
2019-03-22T17:54:33.181Z,11.60
2019-03-22T17:57:05.536Z,11.60
2019-03-22T17:59:36.917Z,11.70
2019-03-22T18:02:08.341Z,11.70
2019-03-22T18:04:39.891Z,11.70
2019-03-22T18:07:11.312Z,11.60
2019-03-22T18:09:43.311Z,11.60
2019-03-22T18:12:14.652Z,11.50
2019-03-22T18:14:46.076Z,11.50
2019-03-22T18:19:59.654Z,11.40
2019-03-22T18:22:31.237Z,11.40
2019-03-22T18:25:02.466Z,11.30
2019-03-22T18:27:33.755Z,11.40
2019-03-22T18:30:06.114Z,11.40
2019-03-22T18:32:37.609Z,11.30
2019-03-22T18:35:09.791Z,11.30
2019-03-22T18:37:40.993Z,11.30
2019-03-22T18:40:12.658Z,11.30
2019-03-22T18:42:43.930Z,11.30
2019-03-22T18:45:15.607Z,11.30
2019-03-22T18:47:46.722Z,11.30
2019-03-22T18:50:18.274Z,11.30
2019-03-22T18:52:49.482Z,11.20
2019-03-22T18:55:21.976Z,11.30
2019-03-22T18:57:53.463Z,11.10
2019-03-22T19:00:25.017Z,11.10
2019-03-22T19:02:56.314Z,11.10
2019-03-22T19:05:27.660Z,11.10
2019-03-22T19:07:59.002Z,11.10
2019-03-22T19:10:30.161Z,11.10
2019-03-22T19:13:01.650Z,11.00
2019-03-22T19:15:32.954Z,11.10
2019-03-22T19:18:04.205Z,11.00
2019-03-22T19:20:35.454Z,11.00
2019-03-22T19:23:06.792Z,11.00
2019-03-22T19:25:38.131Z,10.90
2019-03-22T19:28:13.426Z,10.90
2019-03-22T19:30:46.355Z,10.80
2019-03-22T19:33:17.843Z,10.70
2019-03-22T19:35:49.398Z,10.60
2019-03-22T19:38:20.500Z,10.60
2019-03-22T19:40:52.122Z,10.60
2019-03-22T19:43:23.382Z,10.50
2019-03-22T19:45:54.526Z,10.40
2019-03-22T19:48:25.927Z,10.30
2019-03-22T19:50:57.493Z,10.30
2019-03-22T19:53:28.783Z,10.30
2019-03-22T19:56:00.192Z,10.20
2019-03-22T19:58:31.244Z,10.00
2019-03-22T20:01:02.658Z,10.00
2019-03-22T20:03:33.944Z,9.90
2019-03-22T20:06:05.395Z,9.90
2019-03-22T20:08:38.673Z,9.80
2019-03-22T20:11:09.891Z,9.70
2019-03-22T20:13:52.343Z,9.60
2019-03-22T20:16:23.649Z,9.50
2019-03-22T20:21:36.776Z,9.40
2019-03-22T20:24:08.036Z,9.50
2019-03-22T20:26:39.284Z,9.50
2019-03-22T20:29:10.556Z,9.50
2019-03-22T20:31:42.072Z,9.50
2019-03-22T20:34:13.420Z,9.50
2019-03-22T20:36:44.585Z,9.50
2019-03-22T20:39:15.934Z,9.40
2019-03-22T20:41:47.243Z,9.40
2019-03-22T20:44:19.616Z,9.30
2019-03-22T20:46:50.901Z,9.40
2019-03-22T20:49:22.417Z,9.40
2019-03-22T20:51:53.879Z,9.40
2019-03-22T20:54:25.116Z,9.40
2019-03-22T20:56:56.515Z,9.40
2019-03-22T20:59:27.770Z,9.40
2019-03-22T21:01:59.177Z,9.40
2019-03-22T21:04:30.744Z,9.40
2019-03-22T21:07:02.064Z,9.40
2019-03-22T21:09:33.609Z,9.30
2019-03-22T21:12:05.073Z,9.30
2019-03-22T21:14:36.421Z,9.30
2019-03-22T21:17:07.919Z,9.30
2019-03-22T21:19:39.157Z,9.20
2019-03-22T21:22:10.633Z,9.20
2019-03-22T21:24:41.854Z,9.20
2019-03-22T21:27:15.770Z,9.20
2019-03-22T21:29:46.161Z,9.20
2019-03-22T21:32:17.511Z,9.30
2019-03-22T21:34:48.652Z,9.30
2019-03-22T21:37:19.820Z,9.30
2019-03-22T21:39:50.987Z,9.30
2019-03-22T21:42:22.298Z,9.30
2019-03-22T21:44:53.412Z,9.30
2019-03-22T21:47:24.754Z,9.30
2019-03-22T21:49:56.103Z,9.30
2019-03-22T21:52:27.464Z,9.30
2019-03-22T21:54:58.886Z,9.30
2019-03-22T21:57:30.552Z,9.40
2019-03-22T22:00:02.001Z,9.50
2019-03-22T22:02:33.489Z,9.50
2019-03-22T22:05:04.786Z,9.50
2019-03-22T22:07:36.111Z,9.60
2019-03-22T22:10:07.759Z,9.50
2019-03-22T22:12:39.134Z,9.50
2019-03-22T22:15:11.784Z,9.50
2019-03-22T22:17:43.175Z,9.50
2019-03-22T22:20:14.647Z,9.60
2019-03-22T22:22:46.061Z,9.60
2019-03-22T22:25:17.444Z,9.60
2019-03-22T22:30:31.611Z,9.50
2019-03-22T22:33:02.920Z,9.50
2019-03-22T22:35:34.309Z,9.40
2019-03-22T22:38:05.950Z,9.50
2019-03-22T22:40:37.391Z,9.40
2019-03-22T22:43:08.820Z,9.40
2019-03-22T22:45:40.214Z,9.40
2019-03-22T22:48:11.489Z,9.40
2019-03-22T22:50:42.887Z,9.40
2019-03-22T22:53:14.197Z,9.40
2019-03-22T22:55:45.915Z,9.40
2019-03-22T22:58:18.075Z,9.40
2019-03-22T23:00:50.123Z,9.40
2019-03-22T23:03:22.819Z,9.40
2019-03-22T23:05:54.171Z,9.50
2019-03-22T23:08:26.567Z,9.50
2019-03-22T23:10:58.085Z,9.60
2019-03-22T23:16:18.644Z,9.50
2019-03-22T23:18:49.772Z,9.50
2019-03-22T23:21:21.068Z,9.50
2019-03-22T23:23:52.465Z,9.60
2019-03-22T23:26:23.851Z,9.60
2019-03-22T23:28:55.218Z,9.70
2019-03-22T23:31:26.507Z,9.70
2019-03-22T23:33:58.037Z,9.60
2019-03-22T23:36:29.449Z,9.60
2019-03-22T23:41:49.481Z,9.60
2019-03-22T23:44:20.665Z,9.60
2019-03-22T23:46:52.134Z,9.60
2019-03-22T23:49:23.221Z,9.60
2019-03-22T23:51:54.329Z,9.60
2019-03-22T23:54:25.367Z,9.60
2019-03-22T23:56:56.728Z,9.60
2019-03-22T23:59:28.191Z,9.50
